Time;durP1;ratioP1;P1;durP2;ratioP2;P2;SDS_P1;SDS_P2;PMS_P1;PMS_P2;Temp;Humidity;BMP_temperature;BMP_pressure;BME280_temperature;BME280_humidity;BME280_pressure;Samples;Min_cycle;Max_cycle;Signal;HPM_P1;HPM_P2
2021/06/13 00:00:59;;;;;;;1.75;1.75;;;;;;;15.86;89.59;100737.72;6339748;28;20325;-75
2021/06/13 00:04:05;;;;;;;1.85;1.73;;;;;;;15.85;89.46;100748.97;6340659;28;20219;-75
2021/06/13 00:07:08;;;;;;;2.35;2.00;;;;;;;15.76;89.70;100748.59;6339629;28;20187;-75
2021/06/13 00:10:15;;;;;;;3.33;1.60;;;;;;;15.57;90.31;100752.69;6340389;28;20190;-75
2021/06/13 00:13:20;;;;;;;1.92;1.83;;;;;;;15.65;89.92;100752.25;6340111;28;20190;-75
2021/06/13 00:16:24;;;;;;;5.25;1.88;;;;;;;15.74;89.87;100755.44;6339960;28;20213;-75
2021/06/13 00:19:28;;;;;;;1.95;1.80;;;;;;;15.77;89.28;100760.41;6338869;28;20545;-75
2021/06/13 00:22:31;;;;;;;2.05;1.90;;;;;;;15.63;89.72;100763.53;6338724;28;20374;-75
2021/06/13 00:25:36;;;;;;;1.60;1.60;;;;;;;15.65;89.63;100766.00;6340111;28;20183;-75
2021/06/13 00:28:41;;;;;;;5.97;1.60;;;;;;;15.71;89.35;100776.00;6338597;28;20187;-75
2021/06/13 00:31:45;;;;;;;1.90;1.80;;;;;;;15.58;89.37;100757.94;6338977;28;20384;-75
2021/06/13 00:34:50;;;;;;;2.42;1.50;;;;;;;15.79;89.00;100775.59;6339383;28;20298;-75
2021/06/13 00:37:55;;;;;;;2.22;2.05;;;;;;;15.79;89.21;100791.25;6339666;28;20218;-75
2021/06/13 00:40:59;;;;;;;3.90;2.00;;;;;;;15.84;88.54;100797.69;6339863;28;20183;-75
2021/06/13 00:44:05;;;;;;;1.67;1.67;;;;;;;15.81;89.15;100803.66;6339369;28;20182;-75
2021/06/13 00:47:09;;;;;;;1.83;1.77;;;;;;;15.79;89.14;100800.34;6338171;28;20233;-75
2021/06/13 00:50:18;;;;;;;1.65;1.65;;;;;;;15.64;89.60;100800.09;6320459;28;20202;-75
2021/06/13 00:53:22;;;;;;;1.73;1.65;;;;;;;15.68;89.39;100806.78;6338390;28;20285;-75
2021/06/13 00:56:34;;;;;;;3.92;1.80;;;;;;;15.77;89.27;100821.75;6320072;28;20292;-75
2021/06/13 00:59:39;;;;;;;2.35;1.60;;;;;;;15.70;89.66;100832.09;6339241;28;20221;-75
2021/06/13 01:02:43;;;;;;;3.83;1.90;;;;;;;15.64;90.03;100838.59;6339412;28;20221;-74
2021/06/13 01:05:47;;;;;;;2.00;1.90;;;;;;;15.56;90.58;100841.78;6337877;28;20199;-75
2021/06/13 01:08:59;;;;;;;1.95;1.90;;;;;;;15.50;91.27;100851.00;6337064;28;20565;-75
2021/06/13 01:12:15;;;;;;;2.20;1.90;;;;;;;15.49;91.66;100852.94;6321145;28;20199;-75
2021/06/13 01:15:27;;;;;;;4.43;1.90;;;;;;;15.43;91.29;100847.56;6337579;28;20470;-75
2021/06/13 01:18:36;;;;;;;2.15;2.05;;;;;;;15.51;91.11;100849.94;6318945;28;20276;-75
2021/06/13 01:21:57;;;;;;;1.90;1.75;;;;;;;15.52;90.45;100857.09;6336818;28;20232;-75
2021/06/13 01:25:07;;;;;;;1.98;1.88;;;;;;;15.57;90.21;100859.94;6320608;28;20213;-75
2021/06/13 01:28:45;;;;;;;2.00;1.90;;;;;;;15.48;90.18;100866.94;6321199;28;20187;-75
2021/06/13 01:31:54;;;;;;;1.88;1.77;;;;;;;15.54;89.67;100877.75;6336877;28;20236;-75
2021/06/13 01:35:00;;;;;;;1.77;1.77;;;;;;;15.52;88.14;100884.59;6337288;28;20187;-75
2021/06/13 01:38:09;;;;;;;3.05;2.10;;;;;;;15.52;88.13;100885.44;6338433;28;20207;-75
2021/06/13 01:41:15;;;;;;;2.10;1.90;;;;;;;15.44;87.91;100865.72;6320219;28;20198;-75
2021/06/13 01:44:21;;;;;;;1.60;1.60;;;;;;;15.48;86.66;100886.19;6338016;28;20214;-75
2021/06/13 01:47:27;;;;;;;2.13;2.03;;;;;;;15.51;84.41;100888.44;6319729;28;20275;-74
2021/06/13 01:50:37;;;;;;;2.60;1.70;;;;;;;15.55;83.25;100903.34;6337964;28;20183;-75
2021/06/13 01:53:43;;;;;;;1.80;1.70;;;;;;;15.57;82.96;100898.44;6319160;28;20535;-75
2021/06/13 01:56:52;;;;;;;3.03;1.60;;;;;;;15.49;82.89;100912.56;6336002;28;20250;-75
2021/06/13 02:00:09;;;;;;;1.73;1.60;;;;;;;15.50;81.29;100922.50;6319609;28;20199;-75
2021/06/13 02:03:25;;;;;;;3.83;1.80;;;;;;;15.42;78.45;100917.38;6337649;28;20187;-74
2021/06/13 02:06:53;;;;;;;2.83;1.90;;;;;;;15.44;77.10;100931.69;6336706;28;20270;-75
2021/06/13 02:10:05;;;;;;;1.90;1.80;;;;;;;15.39;77.34;100956.34;6336510;28;20379;-75
2021/06/13 02:13:14;;;;;;;1.77;1.77;;;;;;;15.43;76.35;100949.28;6319783;28;20262;-75
2021/06/13 02:16:22;;;;;;;2.80;1.88;;;;;;;15.33;74.14;100946.34;6318951;28;20423;-75
2021/06/13 02:19:29;;;;;;;2.40;1.55;;;;;;;15.30;72.37;100952.34;6318619;28;20544;-75
2021/06/13 02:22:41;;;;;;;2.22;1.88;;;;;;;15.28;73.51;100951.75;6337369;28;20187;-75
2021/06/13 02:25:45;;;;;;;3.38;1.88;;;;;;;15.20;72.08;100949.38;6319679;28;20198;-75
2021/06/13 02:28:53;;;;;;;1.75;1.65;;;;;;;15.11;72.76;100957.16;6335966;28;20210;-75
2021/06/13 02:31:59;;;;;;;1.80;1.80;;;;;;;15.05;72.10;100969.97;6321415;28;20485;-75
2021/06/13 02:35:07;;;;;;;1.88;1.60;;;;;;;14.95;71.38;100961.50;6341433;28;20250;-75
2021/06/13 02:38:20;;;;;;;1.50;1.50;;;;;;;15.07;73.11;100980.72;6341280;28;20210;-75
2021/06/13 02:41:28;;;;;;;1.65;1.65;;;;;;;15.03;71.20;100977.63;6323304;28;20261;-75
2021/06/13 02:44:32;;;;;;;1.73;1.70;;;;;;;14.90;70.68;100969.66;6324503;28;20237;-75
2021/06/13 02:47:37;;;;;;;1.60;1.50;;;;;;;14.86;70.06;100990.44;6323360;28;20277;-75
2021/06/13 02:50:42;;;;;;;1.42;1.40;;;;;;;14.85;70.29;100991.50;6324452;28;20245;-75
2021/06/13 02:53:54;;;;;;;1.80;1.60;;;;;;;14.88;70.21;100993.78;6340943;28;20183;-75
2021/06/13 02:57:06;;;;;;;4.15;1.67;;;;;;;14.69;69.16;101005.97;6323013;28;20289;-75
2021/06/13 03:00:17;;;;;;;1.55;1.55;;;;;;;14.82;69.92;101019.47;6323314;28;20262;-75
2021/06/13 03:03:28;;;;;;;1.20;1.20;;;;;;;14.86;68.34;101017.91;6340827;28;20183;-75
2021/06/13 03:06:34;;;;;;;1.33;1.23;;;;;;;14.96;68.09;101034.63;6342117;28;20220;-75
2021/06/13 03:09:38;;;;;;;1.40;1.40;;;;;;;15.05;67.93;101040.56;6341657;28;20183;-75
2021/06/13 03:12:49;;;;;;;1.20;1.20;;;;;;;14.99;66.13;101056.13;6341527;28;20209;-75
2021/06/13 03:15:53;;;;;;;1.15;1.15;;;;;;;15.01;66.57;101048.47;6341883;28;20214;-75
2021/06/13 03:18:58;;;;;;;1.85;1.40;;;;;;;15.00;65.52;101052.28;6322706;28;20563;-75
2021/06/13 03:22:06;;;;;;;1.20;1.20;;;;;;;15.15;65.93;101059.22;6341445;28;20228;-75
2021/06/13 03:25:18;;;;;;;1.35;1.35;;;;;;;15.02;65.09;101050.13;6339293;28;20312;-75
2021/06/13 03:28:24;;;;;;;1.08;1.08;;;;;;;15.07;64.71;101069.47;6322878;28;20248;-74
2021/06/13 03:31:29;;;;;;;1.10;1.10;;;;;;;14.88;64.70;101070.72;6340423;28;20356;-75
2021/06/13 03:34:35;;;;;;;0.90;0.90;;;;;;;15.10;64.94;101075.59;6341525;28;20230;-75
2021/06/13 03:37:42;;;;;;;1.10;1.10;;;;;;;15.14;63.97;101093.25;6340557;28;20267;-75
2021/06/13 03:40:51;;;;;;;0.95;0.95;;;;;;;15.13;63.33;101088.81;6338653;28;20230;-75
2021/06/13 03:43:56;;;;;;;1.23;1.13;;;;;;;15.15;62.10;101092.19;6339580;28;20254;-75
2021/06/13 03:47:01;;;;;;;5.15;1.17;;;;;;;15.14;62.58;101104.25;6341124;28;20187;-75
2021/06/13 03:50:09;;;;;;;0.90;0.90;;;;;;;15.07;62.44;101117.28;6341068;28;20228;-75
2021/06/13 03:53:15;;;;;;;0.90;0.90;;;;;;;15.11;62.48;101129.47;6339643;28;20395;-75
2021/06/13 03:56:22;;;;;;;0.90;0.90;;;;;;;15.03;61.54;101123.25;6340572;28;20189;-75
2021/06/13 03:59:28;;;;;;;1.60;1.13;;;;;;;15.11;62.05;101133.03;6339324;28;20266;-75
2021/06/13 04:02:34;;;;;;;1.25;1.10;;;;;;;15.15;61.79;101136.16;6339254;28;20412;-75
2021/06/13 04:05:41;;;;;;;1.13;1.08;;;;;;;15.24;61.53;101140.22;6340300;28;20183;-75
2021/06/13 04:08:47;;;;;;;1.10;1.00;;;;;;;15.10;62.42;101139.59;6321352;28;20451;-75
2021/06/13 04:11:52;;;;;;;0.90;0.90;;;;;;;15.18;61.11;101136.50;6340136;28;20209;-75
2021/06/13 04:14:59;;;;;;;2.08;0.90;;;;;;;15.31;61.14;101141.75;6340128;28;20214;-75
2021/06/13 04:18:05;;;;;;;1.75;0.90;;;;;;;15.28;59.96;101141.41;6339886;28;20218;-75
2021/06/13 04:21:13;;;;;;;1.02;1.02;;;;;;;15.29;60.09;101143.06;6338891;28;20390;-75
2021/06/13 04:24:21;;;;;;;1.00;1.00;;;;;;;15.24;60.80;101145.72;6340114;28;20205;-75
2021/06/13 04:27:27;;;;;;;1.10;1.08;;;;;;;15.16;59.60;101143.31;6338655;28;20485;-75
2021/06/13 04:30:31;;;;;;;1.10;1.10;;;;;;;15.13;61.10;101155.63;6338433;28;20529;-75
2021/06/13 04:33:35;;;;;;;1.10;1.10;;;;;;;15.31;61.57;101163.75;6338966;28;20297;-75
2021/06/13 04:36:39;;;;;;;1.08;1.05;;;;;;;15.25;60.90;101161.13;6338841;28;20183;-75
2021/06/13 04:39:45;;;;;;;1.48;1.10;;;;;;;15.28;59.30;101172.47;6338270;28;20521;-75
2021/06/13 04:42:50;;;;;;;1.13;1.00;;;;;;;15.25;59.25;101172.13;6338302;28;20534;-75
2021/06/13 04:45:54;;;;;;;2.25;1.00;;;;;;;15.25;59.49;101174.88;6339670;28;20214;-75
2021/06/13 04:48:58;;;;;;;1.05;1.02;;;;;;;15.09;58.99;101175.59;6339092;28;20186;-75
2021/06/13 04:52:03;;;;;;;0.88;0.88;;;;;;;15.19;58.20;101170.31;6339375;28;20183;-74
2021/06/13 04:55:17;;;;;;;0.90;0.90;;;;;;;15.03;58.27;101172.72;6338374;28;20190;-75
2021/06/13 04:58:26;;;;;;;1.02;1.02;;;;;;;14.93;59.25;101188.97;6339156;28;20242;-75
2021/06/13 05:01:30;;;;;;;2.65;1.20;;;;;;;15.09;59.59;101181.09;6337838;28;20380;-75
2021/06/13 05:04:34;;;;;;;1.20;1.20;;;;;;;15.17;58.79;101188.97;6338759;28;20190;-75
2021/06/13 05:07:38;;;;;;;1.27;1.27;;;;;;;15.21;58.65;101190.16;6339108;28;20183;-75
2021/06/13 05:10:44;;;;;;;1.60;1.35;;;;;;;15.28;59.15;101185.41;6337754;28;20189;-75
2021/06/13 05:13:48;;;;;;;1.02;1.02;;;;;;;15.32;58.89;101197.56;6338029;28;20246;-75
2021/06/13 05:16:52;;;;;;;1.10;1.10;;;;;;;15.26;59.23;101198.53;6338871;28;20197;-75
2021/06/13 05:19:57;;;;;;;1.00;1.00;;;;;;;16.14;56.25;101197.22;6338159;28;20211;-74
2021/06/13 05:23:03;;;;;;;1.10;1.00;;;;;;;16.38;56.11;101186.09;6338390;28;20190;-75
2021/06/13 05:26:08;;;;;;;1.65;1.65;;;;;;;16.96;55.93;101200.41;6338300;28;20183;-75
2021/06/13 05:29:13;;;;;;;1.65;0.98;;;;;;;17.04;55.60;101211.03;6338505;28;20187;-75
2021/06/13 05:32:17;;;;;;;0.90;0.80;;;;;;;17.22;52.82;101221.81;6338017;28;20198;-75
2021/06/13 05:35:21;;;;;;;0.90;0.90;;;;;;;17.18;51.21;101226.13;6338102;28;20250;-75
2021/06/13 05:38:27;;;;;;;1.10;0.90;;;;;;;17.05;51.24;101240.25;6338058;28;20210;-75
2021/06/13 05:41:33;;;;;;;0.90;0.90;;;;;;;17.20;51.88;101226.72;6338276;28;20307;-75
2021/06/13 05:44:37;;;;;;;0.90;0.90;;;;;;;17.00;49.64;101240.16;6338179;28;20186;-75
2021/06/13 05:47:42;;;;;;;1.08;0.90;;;;;;;17.03;49.93;101249.84;6337675;28;20228;-75
2021/06/13 05:50:46;;;;;;;0.80;0.80;;;;;;;17.07;50.67;101251.88;6337677;28;20194;-75
2021/06/13 05:53:50;;;;;;;0.90;0.90;;;;;;;17.13;49.64;101261.88;6336857;28;20378;-75
2021/06/13 05:56:55;;;;;;;0.90;0.90;;;;;;;17.08;49.61;101258.19;6337803;28;20190;-75
2021/06/13 06:00:00;;;;;;;1.20;1.10;;;;;;;17.09;49.23;101266.25;6337817;28;20211;-75
2021/06/13 06:03:15;;;;;;;1.10;1.10;;;;;;;17.10;49.43;101259.63;6336458;28;20466;-75
2021/06/13 06:06:19;;;;;;;1.00;1.00;;;;;;;17.06;49.28;101283.28;6336948;28;20191;-75
2021/06/13 06:09:23;;;;;;;1.10;0.95;;;;;;;17.18;49.25;101275.75;6337495;28;20229;-75
2021/06/13 06:12:29;;;;;;;1.00;1.00;;;;;;;17.20;50.16;101278.28;6336360;28;20474;-75
2021/06/13 06:15:34;;;;;;;0.88;0.88;;;;;;;17.17;49.58;101274.09;6336279;28;20522;-75
2021/06/13 06:18:38;;;;;;;0.93;0.93;;;;;;;17.24;50.58;101285.78;6337206;28;20209;-75
2021/06/13 06:21:42;;;;;;;0.90;0.90;;;;;;;17.44;50.38;101279.78;6337688;28;20228;-75
2021/06/13 06:24:46;;;;;;;1.75;0.80;;;;;;;17.30;49.60;101293.09;6336713;28;20183;-75
2021/06/13 06:27:53;;;;;;;2.92;0.80;;;;;;;17.37;49.48;101302.00;6337170;28;20187;-75
2021/06/13 06:31:00;;;;;;;1.90;0.88;;;;;;;17.31;48.89;101297.50;6337588;28;20199;-75
2021/06/13 06:34:04;;;;;;;1.23;0.80;;;;;;;17.15;48.51;101303.00;6336439;28;20234;-75
2021/06/13 06:37:09;;;;;;;1.00;1.00;;;;;;;17.24;48.89;101312.53;6337227;28;20187;-75
2021/06/13 06:40:14;;;;;;;0.80;0.80;;;;;;;16.95;49.14;101325.50;6336866;28;20256;-75
2021/06/13 06:43:20;;;;;;;1.00;1.00;;;;;;;17.14;48.19;101318.72;6336943;28;20187;-74
2021/06/13 06:46:24;;;;;;;0.90;0.90;;;;;;;17.35;48.47;101320.75;6336070;28;20445;-75
2021/06/13 06:49:30;;;;;;;0.60;0.60;;;;;;;17.31;47.76;101336.09;6336901;28;20193;-75
2021/06/13 06:52:34;;;;;;;0.70;0.70;;;;;;;17.36;47.77;101349.97;6336816;28;20214;-77
2021/06/13 06:55:38;;;;;;;2.25;0.90;;;;;;;17.36;48.15;101333.44;6335817;28;20375;-75
2021/06/13 06:58:44;;;;;;;0.80;0.80;;;;;;;17.38;47.68;101328.50;6337223;28;20258;-75
2021/06/13 07:01:48;;;;;;;2.60;0.70;;;;;;;17.35;47.26;101351.09;6336122;28;20187;-75
2021/06/13 07:04:52;;;;;;;1.17;0.80;;;;;;;17.34;47.66;101346.63;6337024;28;20251;-75
2021/06/13 07:07:56;;;;;;;0.88;0.88;;;;;;;17.24;46.48;101340.94;6336931;28;20189;-75
2021/06/13 07:11:01;;;;;;;0.60;0.60;;;;;;;17.40;46.55;101353.09;6336959;28;20187;-75
2021/06/13 07:14:06;;;;;;;0.70;0.70;;;;;;;17.54;46.74;101359.16;6335381;28;20466;-75
2021/06/13 07:17:11;;;;;;;0.70;0.70;;;;;;;17.59;46.63;101364.75;6337235;28;20187;-75
2021/06/13 07:20:15;;;;;;;0.70;0.70;;;;;;;17.64;47.16;101356.56;6341450;28;20260;-75
2021/06/13 07:23:19;;;;;;;2.03;0.80;;;;;;;17.66;47.79;101365.41;6341395;28;20190;-75
2021/06/13 07:26:24;;;;;;;0.80;0.80;;;;;;;17.68;47.15;101363.25;6341091;28;20189;-75
2021/06/13 07:29:29;;;;;;;1.45;0.90;;;;;;;17.74;46.15;101373.28;6340688;28;20232;-75
2021/06/13 07:32:33;;;;;;;0.80;0.80;;;;;;;17.71;45.76;101368.25;6339762;28;20226;-75
2021/06/13 07:35:38;;;;;;;1.00;1.00;;;;;;;17.77;46.25;101375.53;6340658;28;20183;-76
2021/06/13 07:38:42;;;;;;;1.02;0.70;;;;;;;17.79;46.22;101365.09;6339601;28;20448;-75
2021/06/13 07:41:46;;;;;;;0.90;0.90;;;;;;;17.83;46.56;101360.72;6340645;28;20291;-75
2021/06/13 07:44:52;;;;;;;0.77;0.77;;;;;;;17.94;46.05;101370.84;6341759;28;20210;-75
2021/06/13 07:47:56;;;;;;;0.60;0.60;;;;;;;18.04;45.48;101379.28;6341005;28;20292;-76
2021/06/13 07:51:01;;;;;;;0.60;0.60;;;;;;;18.07;45.15;101376.00;6339467;28;20417;-75
2021/06/13 07:54:06;;;;;;;0.70;0.70;;;;;;;18.11;45.95;101379.94;6340206;28;20194;-75
2021/06/13 07:57:11;;;;;;;8.07;0.90;;;;;;;18.17;45.32;101384.44;6340659;28;20258;-75
2021/06/13 08:00:19;;;;;;;1.50;0.90;;;;;;;18.19;44.85;101382.25;6340363;28;20322;-75
2021/06/13 08:03:27;;;;;;;0.85;0.80;;;;;;;18.19;45.48;101389.69;6338931;28;20218;-76
2021/06/13 08:06:32;;;;;;;1.30;0.80;;;;;;;18.01;44.93;101397.19;6339034;28;20394;-75
2021/06/13 08:09:36;;;;;;;0.93;0.93;;;;;;;17.96;42.68;101399.03;6340077;28;20189;-75
2021/06/13 08:12:40;;;;;;;0.68;0.68;;;;;;;17.93;42.60;101382.97;6339677;28;20218;-75
2021/06/13 08:15:46;;;;;;;0.60;0.60;;;;;;;17.84;42.89;101401.03;6339957;28;20183;-74
2021/06/13 08:18:51;;;;;;;0.77;0.77;;;;;;;18.19;43.89;101398.84;6339319;28;20211;-75
2021/06/13 08:21:55;;;;;;;0.73;0.73;;;;;;;18.29;44.08;101403.66;6339537;28;20211;-75
2021/06/13 08:24:59;;;;;;;0.90;0.90;;;;;;;18.31;43.27;101391.25;6338608;28;20183;-75
2021/06/13 08:28:05;;;;;;;0.70;0.70;;;;;;;18.26;42.84;101413.28;6338799;28;20187;-75
2021/06/13 08:31:11;;;;;;;2.05;1.00;;;;;;;18.42;43.82;101423.47;6338568;28;20230;-75
2021/06/13 08:34:15;;;;;;;0.90;0.90;;;;;;;18.14;41.85;101423.59;6338173;28;20305;-75
2021/06/13 08:37:19;;;;;;;0.98;0.85;;;;;;;18.09;43.19;101423.53;6320328;28;20377;-75
2021/06/13 08:40:24;;;;;;;0.90;0.90;;;;;;;18.09;43.06;101442.84;6339110;28;20211;-75
2021/06/13 08:43:29;;;;;;;5.13;0.90;;;;;;;18.16;43.02;101438.00;6339300;28;20237;-75
2021/06/13 08:46:37;;;;;;;0.85;0.85;;;;;;;18.19;43.64;101437.50;6338720;28;20228;-75
2021/06/13 08:49:42;;;;;;;2.40;0.80;;;;;;;18.14;43.63;101445.69;6337610;28;20183;-75
2021/06/13 08:52:48;;;;;;;0.82;0.82;;;;;;;18.24;44.15;101448.63;6338542;28;20441;-76
2021/06/13 08:55:52;;;;;;;0.70;0.70;;;;;;;18.31;43.05;101441.00;6339094;28;20187;-76
2021/06/13 08:58:56;;;;;;;0.93;0.93;;;;;;;18.16;43.92;101449.03;6337499;28;20470;-75
2021/06/13 09:02:02;;;;;;;0.80;0.80;;;;;;;18.13;42.69;101444.03;6337413;28;20512;-76
2021/06/13 09:05:13;;;;;;;0.80;0.75;;;;;;;18.04;40.22;101446.38;6337759;28;20182;-75
2021/06/13 09:08:18;;;;;;;0.70;0.70;;;;;;;18.19;42.84;101437.50;6337145;28;20376;-76
2021/06/13 09:11:28;;;;;;;7.90;0.77;;;;;;;17.99;41.43;101442.69;6338342;28;20193;-75
2021/06/13 09:14:38;;;;;;;0.55;0.55;;;;;;;17.98;41.95;101449.31;6337492;28;20246;-75
2021/06/13 09:17:44;;;;;;;0.90;0.77;;;;;;;18.09;42.52;101442.84;6337728;28;20228;-76
2021/06/13 09:20:48;;;;;;;0.70;0.70;;;;;;;18.15;43.27;101447.38;6336455;28;20528;-75
2021/06/13 09:23:53;;;;;;;2.75;0.80;;;;;;;17.99;42.50;101449.06;6338013;28;20191;-75
2021/06/13 09:27:09;;;;;;;1.85;0.93;;;;;;;17.99;42.46;101456.50;6336555;28;20430;-75
2021/06/13 09:30:19;;;;;;;0.80;0.80;;;;;;;17.99;42.44;101453.75;6337349;28;20224;-76
2021/06/13 09:33:26;;;;;;;1.00;1.00;;;;;;;18.18;43.24;101455.16;6337827;28;20238;-75
2021/06/13 09:36:33;;;;;;;4.13;0.70;;;;;;;18.18;43.49;101468.13;6336500;28;20397;-75
2021/06/13 09:39:38;;;;;;;1.45;0.95;;;;;;;18.16;44.55;101465.63;6337333;28;20183;-75
2021/06/13 09:42:43;;;;;;;1.20;0.63;;;;;;;18.17;42.76;101478.34;6337879;28;20252;-75
2021/06/13 09:46:01;;;;;;;0.80;0.80;;;;;;;18.13;42.18;101496.50;6336100;28;20229;-75
2021/06/13 09:49:09;;;;;;;1.05;0.80;;;;;;;18.07;40.94;101486.47;6336413;28;20473;-75
2021/06/13 09:52:14;;;;;;;0.85;0.85;;;;;;;18.20;42.21;101488.06;6336711;28;20194;-75
2021/06/13 09:55:21;;;;;;;1.02;0.80;;;;;;;18.33;44.13;101474.75;6337361;28;20214;-76
2021/06/13 09:58:25;;;;;;;1.15;0.95;;;;;;;18.28;44.12;101485.72;6337839;28;20190;-75
2021/06/13 10:01:40;;;;;;;0.98;0.98;;;;;;;18.28;43.94;101485.72;6336307;28;20505;-75
2021/06/13 10:04:46;;;;;;;0.77;0.77;;;;;;;18.36;43.37;101499.06;6337463;28;20258;-75
2021/06/13 10:07:50;;;;;;;0.80;0.80;;;;;;;18.29;43.53;101498.41;6336257;28;20237;-75
2021/06/13 10:10:54;;;;;;;2.13;1.00;;;;;;;18.34;43.00;101490.22;6335687;28;20205;-75
2021/06/13 10:14:00;;;;;;;0.70;0.70;;;;;;;18.43;44.35;101494.25;6337065;28;20183;-76
2021/06/13 10:17:04;;;;;;;0.82;0.82;;;;;;;18.41;45.55;101507.44;6337209;28;20191;-76
2021/06/13 10:20:24;;;;;;;0.90;0.90;;;;;;;18.50;45.45;101494.91;6337068;28;20256;-75
2021/06/13 10:23:29;;;;;;;0.98;0.98;;;;;;;18.52;45.35;101503.78;6336307;28;20251;-75
2021/06/13 10:26:35;;;;;;;0.90;0.90;;;;;;;18.56;45.53;101506.88;6337609;28;20254;-75
2021/06/13 10:29:41;;;;;;;0.80;0.80;;;;;;;18.68;46.41;101502.94;6336353;28;20214;-75
2021/06/13 10:32:45;;;;;;;2.88;1.10;;;;;;;18.70;45.34;101510.97;6336476;28;20230;-75
2021/06/13 10:35:51;;;;;;;0.90;0.90;;;;;;;18.70;44.60;101517.31;6336937;28;20214;-75
2021/06/13 10:38:55;;;;;;;1.98;1.10;;;;;;;18.81;45.09;101509.19;6336829;28;20189;-76
2021/06/13 10:42:01;;;;;;;3.45;1.08;;;;;;;18.79;45.10;101514.13;6336971;28;20291;-75
2021/06/13 10:45:08;;;;;;;0.85;0.85;;;;;;;18.86;44.55;101503.72;6335510;28;20465;-75
2021/06/13 10:48:14;;;;;;;1.02;1.02;;;;;;;18.81;43.86;101528.53;6336306;28;20276;-75
2021/06/13 10:51:33;;;;;;;1.20;1.20;;;;;;;18.79;44.35;101522.44;6335499;28;20182;-75
2021/06/13 10:54:40;;;;;;;1.10;1.10;;;;;;;18.89;44.76;101514.28;6341362;28;20183;-75
2021/06/13 10:57:46;;;;;;;3.13;1.10;;;;;;;18.98;45.24;101513.56;6340300;28;20410;-75
2021/06/13 11:01:26;;;;;;;0.90;0.90;;;;;;;19.01;43.11;101534.34;6341341;28;20183;-75
2021/06/13 11:04:44;;;;;;;1.20;1.20;;;;;;;18.99;43.77;101533.75;6340038;28;20525;-75
2021/06/13 11:07:58;;;;;;;2.10;1.30;;;;;;;18.91;43.67;101525.91;6341036;28;20183;-75
2021/06/13 11:11:02;;;;;;;1.20;1.20;;;;;;;19.08;43.23;101535.00;6341635;28;20183;-75
2021/06/13 11:14:25;;;;;;;1.10;1.10;;;;;;;19.06;43.22;101548.22;6340404;28;20194;-76
2021/06/13 11:17:52;;;;;;;2.22;1.15;;;;;;;19.04;41.93;101555.94;6340379;28;20215;-76
2021/06/13 11:21:05;;;;;;;1.23;1.23;;;;;;;19.09;42.15;101558.78;6341182;28;20191;-76
2021/06/13 11:24:11;;;;;;;1.10;1.10;;;;;;;19.15;42.36;101552.25;6341257;28;20274;-75
2021/06/13 11:27:16;;;;;;;1.10;1.10;;;;;;;19.30;43.38;101571.81;6340025;28;20249;-76
2021/06/13 11:30:29;;;;;;;1.40;1.30;;;;;;;19.35;42.72;101560.81;6341311;28;20183;-76
2021/06/13 11:33:37;;;;;;;1.30;1.30;;;;;;;19.24;42.00;101562.59;6340591;28;20265;-76
2021/06/13 11:36:43;;;;;;;1.00;1.00;;;;;;;19.42;43.30;101555.94;6340646;28;20247;-75
2021/06/13 11:39:56;;;;;;;1.08;1.08;;;;;;;19.53;42.80;101554.97;6339883;28;20520;-75
2021/06/13 11:43:10;;;;;;;1.05;1.00;;;;;;;19.43;40.75;101559.53;6340706;28;20211;-75
2021/06/13 11:46:14;;;;;;;1.38;1.38;;;;;;;19.50;41.38;101549.94;6340727;28;20246;-76
2021/06/13 11:49:20;;;;;;;1.25;1.17;;;;;;;19.38;42.31;101546.50;6340598;28;20214;-76
2021/06/13 11:53:03;;;;;;;1.20;1.20;;;;;;;19.24;40.02;101561.75;6340301;28;20225;-76
2021/06/13 11:56:12;;;;;;;1.38;1.38;;;;;;;19.47;41.35;101557.91;6340504;28;20184;-76
2021/06/13 11:59:20;;;;;;;1.30;1.30;;;;;;;19.55;40.34;101574.91;6340441;28;20189;-76
2021/06/13 12:02:26;;;;;;;1.40;1.30;;;;;;;19.23;38.08;101577.50;6339939;28;20233;-75
2021/06/13 12:05:31;;;;;;;1.27;1.15;;;;;;;19.31;38.42;101581.78;6339430;28;20214;-76
2021/06/13 12:08:43;;;;;;;1.30;1.30;;;;;;;19.46;39.25;101587.56;6339717;28;20190;-75
2021/06/13 12:11:51;;;;;;;1.30;1.30;;;;;;;19.24;38.40;101594.94;6338948;28;20187;-76
2021/06/13 12:14:59;;;;;;;1.33;1.25;;;;;;;19.17;37.67;101600.69;6340053;28;20264;-76
2021/06/13 12:18:05;;;;;;;2.05;1.60;;;;;;;19.33;38.20;101594.28;6339665;28;20183;-76
2021/06/13 12:21:09;;;;;;;1.40;1.40;;;;;;;19.53;38.80;101599.25;6339404;28;20183;-76
2021/06/13 12:24:20;;;;;;;1.60;1.60;;;;;;;19.54;37.72;101600.91;6338911;28;20213;-75
2021/06/13 12:27:27;;;;;;;1.67;1.58;;;;;;;19.75;37.94;101604.75;6339609;28;20182;-77
2021/06/13 12:30:31;;;;;;;1.52;1.52;;;;;;;19.68;38.26;101602.22;6338623;28;20470;-76
2021/06/13 12:33:36;;;;;;;1.73;1.63;;;;;;;19.75;38.14;101597.28;6339253;28;20284;-75
2021/06/13 12:36:48;;;;;;;1.33;1.33;;;;;;;19.88;36.46;101621.81;6338534;28;20229;-76
2021/06/13 12:39:59;;;;;;;1.70;1.70;;;;;;;19.78;36.48;101605.09;6338263;28;20463;-79
2021/06/13 12:43:06;;;;;;;2.97;2.00;;;;;;;19.83;37.27;101610.69;6339244;28;20231;-75
2021/06/13 12:46:14;;;;;;;1.90;1.75;;;;;;;19.92;36.57;101602.75;6339730;28;20190;-76
2021/06/13 12:49:18;;;;;;;1.70;1.70;;;;;;;19.94;38.21;101604.16;6338858;28;20215;-76
2021/06/13 12:52:22;;;;;;;1.63;1.63;;;;;;;20.11;36.55;101628.19;6338034;28;20182;-75
2021/06/13 12:55:32;;;;;;;1.77;1.65;;;;;;;20.08;35.88;101628.69;6337900;28;20480;-76
2021/06/13 12:58:41;;;;;;;1.70;1.60;;;;;;;19.99;36.46;101623.63;6338634;28;20195;-76
2021/06/13 13:01:45;;;;;;;1.60;1.60;;;;;;;19.90;35.81;101633.47;6339065;28;20221;-76
2021/06/13 13:04:52;;;;;;;1.70;1.70;;;;;;;20.02;35.67;101629.72;6338764;28;20229;-75
2021/06/13 13:08:12;;;;;;;1.42;1.42;;;;;;;20.18;36.14;101639.88;6338911;28;20254;-76
2021/06/13 13:11:24;;;;;;;1.70;1.70;;;;;;;20.35;36.53;101640.63;6337734;28;20368;-76
2021/06/13 13:14:29;;;;;;;2.03;1.70;;;;;;;20.48;36.61;101626.34;6336833;28;20499;-75
2021/06/13 13:17:33;;;;;;;1.75;1.65;;;;;;;20.74;36.97;101628.22;6338706;28;20214;-75
2021/06/13 13:20:38;;;;;;;1.92;1.92;;;;;;;20.89;36.52;101628.34;6337658;28;20411;-75
2021/06/13 13:23:44;;;;;;;1.55;1.50;;;;;;;20.84;36.62;101644.94;6338651;28;20210;-76
2021/06/13 13:27:00;;;;;;;1.60;1.50;;;;;;;20.91;35.85;101645.56;6338440;28;20253;-76
2021/06/13 13:30:24;;;;;;;1.70;1.70;;;;;;;20.96;35.21;101648.38;6337971;28;20183;-75
2021/06/13 13:33:33;;;;;;;1.75;1.75;;;;;;;20.93;35.27;101651.66;6336282;28;20239;-75
2021/06/13 13:36:39;;;;;;;1.63;1.63;;;;;;;20.83;33.84;101665.44;6337514;28;20250;-74
2021/06/13 13:39:46;;;;;;;1.40;1.40;;;;;;;20.80;34.68;101654.88;6337458;28;20250;-75
2021/06/13 13:43:04;;;;;;;1.70;1.70;;;;;;;21.00;35.85;101665.31;6338145;28;20182;-74
2021/06/13 13:49:47;;;;;;;4.13;1.60;;;;;;;21.80;31.90;101656.66;6418374;27;20300;-75
2021/06/13 13:52:51;;;;;;;1.80;1.70;;;;;;;22.50;32.53;101657.94;6384790;28;20222;-74
2021/06/13 13:55:57;;;;;;;1.50;1.50;;;;;;;22.64;31.05;101659.97;6384334;27;20181;-75
2021/06/13 13:59:01;;;;;;;2.42;1.65;;;;;;;22.87;32.65;101659.41;6384270;28;20293;-75
2021/06/13 14:02:06;;;;;;;1.70;1.60;;;;;;;23.62;31.36;101649.25;6383424;27;20181;-75
2021/06/13 14:05:12;;;;;;;1.50;1.50;;;;;;;24.28;30.30;101663.72;6384229;28;20181;-75
2021/06/13 14:08:17;;;;;;;1.85;1.85;;;;;;;24.52;28.61;101647.94;6384424;27;20254;-75
2021/06/13 14:11:21;;;;;;;1.48;1.48;;;;;;;24.89;28.93;101655.75;6384386;28;20182;-75
2021/06/13 14:14:25;;;;;;;1.75;1.75;;;;;;;25.01;28.85;101660.97;6384499;27;20217;-75
2021/06/13 14:17:29;;;;;;;1.40;1.40;;;;;;;24.30;28.92;101655.91;6384054;28;20193;-75
2021/06/13 14:20:35;;;;;;;1.80;1.70;;;;;;;23.72;29.74;101645.59;6384045;27;20300;-75
2021/06/13 14:23:39;;;;;;;3.10;1.50;;;;;;;23.12;29.69;101666.06;6381824;28;20198;-75
2021/06/13 14:26:43;;;;;;;2.00;2.00;;;;;;;22.83;30.57;101651.91;6382730;28;20217;-74
2021/06/13 14:29:48;;;;;;;1.88;1.88;;;;;;;22.83;30.83;101668.59;6383481;28;20206;-75
2021/06/13 14:32:52;;;;;;;2.63;1.70;;;;;;;22.44;30.53;101677.41;6382518;28;20217;-75